Time;durP1;ratioP1;P1;durP2;ratioP2;P2;SDS_P1;SDS_P2;PMS_P1;PMS_P2;Temp;Humidity;BMP_temperature;BMP_pressure;BME280_temperature;BME280_humidity;BME280_pressure;Samples;Min_cycle;Max_cycle;Signal;HPM_P1;HPM_P2
2023/12/29 00:02:10;;;;;;;29.40;14.15;;;;;;;7.28;100.00;101482.88;5062570;28;20094;-67
2023/12/29 00:04:35;;;;;;;31.05;15.13;;;;;;;7.28;100.00;101475.09;5060902;28;20062;-67
2023/12/29 00:07:02;;;;;;;31.73;15.07;;;;;;;7.27;100.00;101482.06;5061962;28;20043;-67
2023/12/29 00:09:28;;;;;;;28.85;14.98;;;;;;;7.26;100.00;101475.19;5061654;28;20405;-67
2023/12/29 00:11:54;;;;;;;30.25;15.13;;;;;;;7.26;100.00;101471.78;5063050;28;20039;-67
2023/12/29 00:14:20;;;;;;;28.55;14.45;;;;;;;7.29;100.00;101469.81;5061631;28;20036;-67
2023/12/29 00:16:46;;;;;;;33.42;16.38;;;;;;;7.28;100.00;101460.38;5062678;28;20028;-67
2023/12/29 00:19:12;;;;;;;28.30;14.48;;;;;;;7.29;100.00;101469.00;5062874;28;20035;-67
2023/12/29 00:21:37;;;;;;;25.80;14.20;;;;;;;7.29;100.00;101450.84;5059687;28;20033;-67
2023/12/29 00:24:04;;;;;;;26.60;15.07;;;;;;;7.31;100.00;101459.34;5062560;28;20359;-67
2023/12/29 00:26:30;;;;;;;25.20;14.27;;;;;;;7.27;100.00;101447.53;5060168;28;20036;-67
2023/12/29 00:28:55;;;;;;;26.02;14.43;;;;;;;7.26;100.00;101448.44;5069408;28;20036;-67
2023/12/29 00:31:21;;;;;;;31.35;15.15;;;;;;;7.27;100.00;101447.53;5062504;28;20055;-67
2023/12/29 00:33:46;;;;;;;27.38;14.50;;;;;;;7.27;100.00;101444.94;5066125;28;20165;-67
2023/12/29 00:36:16;;;;;;;27.95;14.63;;;;;;;7.26;100.00;101443.25;5079969;28;20032;-67
2023/12/29 00:38:41;;;;;;;34.08;15.77;;;;;;;7.25;100.00;101439.00;5065836;28;20031;-67
2023/12/29 00:41:07;;;;;;;38.35;17.15;;;;;;;7.25;100.00;101444.19;5062902;28;20041;-67
2023/12/29 00:43:32;;;;;;;35.60;16.60;;;;;;;7.25;100.00;101437.25;5064324;28;20029;-67
2023/12/29 00:45:57;;;;;;;27.58;16.08;;;;;;;7.26;100.00;101443.25;5066578;28;20036;-67
2023/12/29 00:48:23;;;;;;;24.40;12.60;;;;;;;7.24;100.00;101440.78;5062049;28;20032;-67
2023/12/29 00:50:48;;;;;;;30.20;15.02;;;;;;;7.22;100.00;101440.03;5061383;28;20033;-67
2023/12/29 00:53:14;;;;;;;25.45;14.20;;;;;;;7.21;100.00;101446.16;5063094;28;20032;-67
2023/12/29 00:55:39;;;;;;;32.20;16.50;;;;;;;7.22;100.00;101444.41;5064580;28;21035;-67
2023/12/29 00:58:05;;;;;;;29.67;13.77;;;;;;;7.22;100.00;101447.00;5065594;28;20039;-67
2023/12/29 01:00:30;;;;;;;30.20;15.45;;;;;;;7.20;100.00;101446.25;5064286;28;20521;-67
2023/12/29 01:02:56;;;;;;;33.53;16.27;;;;;;;7.20;100.00;101444.50;5065573;28;20069;-67
2023/12/29 01:05:22;;;;;;;31.92;14.77;;;;;;;7.20;100.00;101444.50;5066119;28;20032;-67
2023/12/29 01:07:47;;;;;;;28.58;15.32;;;;;;;7.22;100.00;101453.00;5067065;28;20036;-67
2023/12/29 01:10:12;;;;;;;30.55;15.05;;;;;;;7.23;100.00;101453.84;5064633;28;20195;-67
2023/12/29 01:12:38;;;;;;;27.05;15.20;;;;;;;7.21;100.00;101451.34;5066284;28;20020;-67
2023/12/29 01:15:04;;;;;;;26.00;12.88;;;;;;;7.20;100.00;101452.28;5074030;28;20047;-67
2023/12/29 01:17:29;;;;;;;28.17;14.98;;;;;;;7.19;100.00;101457.56;5072664;28;20385;-67
2023/12/29 01:19:55;;;;;;;23.45;13.75;;;;;;;7.18;100.00;101455.88;5071260;28;20093;-67
2023/12/29 01:22:20;;;;;;;27.45;13.57;;;;;;;7.15;100.00;101456.09;5068431;28;20036;-67
2023/12/29 01:24:46;;;;;;;28.70;15.75;;;;;;;7.16;100.00;101457.75;5071501;28;20028;-67
2023/12/29 01:27:11;;;;;;;27.65;14.48;;;;;;;7.15;100.00;101450.91;5073003;28;20032;-67
2023/12/29 01:29:37;;;;;;;33.35;14.30;;;;;;;7.16;100.00;101455.16;5072528;28;20258;-67
2023/12/29 01:32:03;;;;;;;28.02;15.00;;;;;;;7.14;100.00;101457.00;5069277;28;20035;-67
2023/12/29 01:34:32;;;;;;;27.35;14.98;;;;;;;7.13;100.00;101450.16;5071027;28;20036;-67
2023/12/29 01:36:58;;;;;;;32.42;16.25;;;;;;;7.13;100.00;101450.16;5072047;28;20037;-67
2023/12/29 01:39:24;;;;;;;32.15;16.13;;;;;;;7.14;100.00;101441.47;5073319;28;20051;-68
2023/12/29 01:41:49;;;;;;;31.30;15.32;;;;;;;7.14;100.00;101444.88;5075933;28;20397;-67
2023/12/29 01:44:22;;;;;;;27.95;16.00;;;;;;;7.14;100.00;101450.06;5078226;28;20044;-67
2023/12/29 01:46:50;;;;;;;33.00;15.68;;;;;;;7.12;100.00;101443.31;5072604;28;20043;-67
2023/12/29 01:49:19;;;;;;;28.55;15.70;;;;;;;7.14;100.00;101444.88;5072465;28;20024;-67
2023/12/29 01:51:50;;;;;;;27.35;15.38;;;;;;;7.13;100.00;101434.63;5071738;28;20074;-67
2023/12/29 01:54:17;;;;;;;33.65;16.80;;;;;;;7.12;100.00;101430.38;5070234;28;20043;-67
2023/12/29 01:56:43;;;;;;;33.58;15.77;;;;;;;7.14;100.00;101426.75;5069513;28;20454;-67
2023/12/29 01:59:08;;;;;;;29.77;15.75;;;;;;;7.16;100.00;101421.47;5071823;28;20047;-67
2023/12/29 02:01:35;;;;;;;34.42;15.82;;;;;;;7.15;100.00;101423.22;5069881;28;20039;-67
2023/12/29 02:04:01;;;;;;;32.15;16.63;;;;;;;7.15;100.00;101417.22;5071363;28;20476;-67
2023/12/29 02:06:27;;;;;;;28.92;13.95;;;;;;;7.15;100.00;101432.75;5061751;28;20039;-67
2023/12/29 02:08:53;;;;;;;29.67;15.38;;;;;;;7.14;100.00;101421.56;5064681;28;20024;-67
2023/12/29 02:11:18;;;;;;;27.65;15.57;;;;;;;7.13;100.00;101417.31;5064733;28;20040;-68
2023/12/29 02:13:44;;;;;;;28.35;14.70;;;;;;;7.14;100.00;101418.97;5066244;28;20032;-67
2023/12/29 02:16:20;;;;;;;35.95;16.38;;;;;;;7.15;100.00;101412.03;5065278;28;20089;-67
2023/12/29 02:18:50;;;;;;;35.28;15.68;;;;;;;7.16;100.00;101405.91;5064024;28;20035;-67
2023/12/29 02:21:15;;;;;;;34.17;16.63;;;;;;;7.18;100.00;101409.22;5063251;28;20032;-67
2023/12/29 02:23:41;;;;;;;33.15;15.55;;;;;;;7.15;100.00;101412.03;5064153;28;20790;-67
2023/12/29 02:26:10;;;;;;;31.17;16.00;;;;;;;7.16;100.00;101405.91;5064374;28;20479;-67
2023/12/29 02:28:44;;;;;;;32.53;15.57;;;;;;;7.14;100.00;101403.41;5064941;28;20044;-67
2023/12/29 02:31:24;;;;;;;27.23;14.27;;;;;;;7.11;100.00;101410.56;5078661;28;20202;-67
2023/12/29 02:33:52;;;;;;;29.15;14.93;;;;;;;7.07;100.00;101409.13;5064197;28;20040;-67
2023/12/29 02:36:19;;;;;;;42.50;16.80;;;;;;;7.06;100.00;101410.06;5065335;28;20021;-67
2023/12/29 02:38:47;;;;;;;41.10;16.77;;;;;;;7.08;100.00;101416.81;5060643;28;20131;-67
2023/12/29 02:41:13;;;;;;;32.08;13.88;;;;;;;7.12;100.00;101409.63;5066102;28;20031;-67
2023/12/29 02:43:38;;;;;;;33.20;15.23;;;;;;;7.12;100.00;101404.44;5061985;28;20040;-67
2023/12/29 02:46:04;;;;;;;31.75;14.93;;;;;;;7.12;100.00;101402.69;5077960;28;20059;-66
2023/12/29 02:48:30;;;;;;;36.70;16.17;;;;;;;7.13;100.00;101403.50;5076045;28;20038;-66
2023/12/29 02:50:55;;;;;;;37.60;14.80;;;;;;;7.11;100.00;101403.63;5070829;28;20072;-66
2023/12/29 02:53:21;;;;;;;25.48;13.80;;;;;;;7.10;100.00;101398.53;5068489;28;20031;-68
2023/12/29 02:55:46;;;;;;;37.22;15.55;;;;;;;7.08;100.00;101392.66;5071855;28;20117;-67
2023/12/29 02:58:11;;;;;;;28.02;15.05;;;;;;;7.09;100.00;101396.91;5075273;28;20028;-67
2023/12/29 03:00:37;;;;;;;33.25;15.25;;;;;;;7.07;100.00;101393.56;5073739;28;20048;-67
2023/12/29 03:03:02;;;;;;;32.65;16.00;;;;;;;7.05;100.00;101398.84;5068213;28;20039;-67
2023/12/29 03:05:28;;;;;;;33.00;15.80;;;;;;;7.06;100.00;101394.50;5074597;28;20035;-67
2023/12/29 03:07:53;;;;;;;28.50;14.40;;;;;;;7.06;100.00;101395.34;5069235;28;20029;-67
2023/12/29 03:10:19;;;;;;;29.98;14.80;;;;;;;7.05;100.00;101390.25;5071990;28;20024;-67
2023/12/29 03:12:44;;;;;;;31.55;15.48;;;;;;;7.02;100.00;101387.84;5068826;28;20035;-67
2023/12/29 03:15:10;;;;;;;29.63;15.77;;;;;;;7.01;100.00;101383.59;5072431;28;20044;-67
2023/12/29 03:17:35;;;;;;;32.25;16.38;;;;;;;7.02;100.00;101385.25;5078408;28;20122;-67
2023/12/29 03:20:04;;;;;;;29.30;15.82;;;;;;;6.98;100.00;101375.09;5070969;28;20036;-67
2023/12/29 03:22:29;;;;;;;27.48;15.18;;;;;;;6.97;100.00;101376.03;5067668;28;20031;-67
2023/12/29 03:24:55;;;;;;;32.50;17.08;;;;;;;6.94;100.00;101380.56;5069170;28;20024;-67
2023/12/29 03:27:20;;;;;;;34.58;15.23;;;;;;;6.91;100.00;101373.81;5068969;28;20489;-67
2023/12/29 03:29:45;;;;;;;31.75;15.73;;;;;;;6.90;100.00;101379.94;5070617;28;20052;-68
2023/12/29 03:32:11;;;;;;;30.08;15.70;;;;;;;6.86;100.00;101373.28;5072957;28;20476;-67
2023/12/29 03:34:37;;;;;;;30.00;16.08;;;;;;;6.85;100.00;101370.81;5069733;28;20032;-67
2023/12/29 03:37:02;;;;;;;37.40;15.85;;;;;;;6.85;100.00;101373.38;5069538;28;20047;-67
2023/12/29 03:39:28;;;;;;;31.17;15.70;;;;;;;6.84;100.00;101364.78;5068257;28;20034;-67
2023/12/29 03:41:53;;;;;;;30.38;16.40;;;;;;;6.83;100.00;101357.94;5070847;28;20080;-67
2023/12/29 03:44:18;;;;;;;29.23;15.88;;;;;;;6.84;100.00;101353.59;5069484;28;20056;-67
2023/12/29 03:46:44;;;;;;;35.10;14.60;;;;;;;6.80;100.00;101358.13;5068084;28;20028;-67
2023/12/29 03:49:09;;;;;;;29.15;15.82;;;;;;;6.74;100.00;101348.16;5069608;28;20044;-67
2023/12/29 03:51:35;;;;;;;31.50;16.00;;;;;;;6.67;100.00;101354.66;5069326;28;20031;-67
2023/12/29 03:54:00;;;;;;;27.70;14.18;;;;;;;6.55;100.00;101350.28;5073858;28;20052;-67
2023/12/29 03:56:26;;;;;;;30.63;15.82;;;;;;;6.41;100.00;101352.91;5070087;28;20437;-67
2023/12/29 03:58:52;;;;;;;29.40;15.20;;;;;;;6.34;100.00;101352.47;5070005;28;20032;-67
2023/12/29 04:01:17;;;;;;;29.73;14.88;;;;;;;6.23;100.00;101350.53;5074874;28;20476;-67
2023/12/29 04:03:43;;;;;;;29.42;14.48;;;;;;;6.15;100.00;101351.94;5073643;28;20097;-67
2023/12/29 04:06:09;;;;;;;31.83;15.73;;;;;;;6.10;100.00;101352.25;5066141;28;20105;-67
2023/12/29 04:08:35;;;;;;;26.00;14.57;;;;;;;6.08;100.00;101348.09;5072416;28;20033;-67
2023/12/29 04:11:01;;;;;;;28.30;14.90;;;;;;;6.06;100.00;101350.75;5066689;28;20032;-67
2023/12/29 04:13:27;;;;;;;31.23;15.93;;;;;;;6.07;100.00;101352.44;5068001;28;20025;-67
2023/12/29 04:15:53;;;;;;;37.70;16.42;;;;;;;6.03;100.00;101348.38;5072934;28;20036;-67
2023/12/29 04:18:21;;;;;;;29.58;15.27;;;;;;;5.91;100.00;101347.34;5074423;28;20048;-67
2023/12/29 04:20:46;;;;;;;43.13;16.60;;;;;;;5.81;100.00;101345.38;5068572;28;20596;-67
2023/12/29 04:23:12;;;;;;;32.38;16.02;;;;;;;5.75;100.00;101353.50;5074052;28;20044;-67
2023/12/29 04:25:37;;;;;;;39.33;15.75;;;;;;;5.74;100.00;101350.06;5061676;28;20040;-67
2023/12/29 04:28:03;;;;;;;34.42;16.00;;;;;;;5.78;100.00;101356.72;5063136;28;20025;-67
2023/12/29 04:30:29;;;;;;;38.95;16.08;;;;;;;5.79;100.00;101355.81;5062859;28;20600;-67
2023/12/29 04:32:54;;;;;;;34.15;16.67;;;;;;;5.84;100.00;101353.78;5065176;28;20031;-67
2023/12/29 04:35:20;;;;;;;29.17;15.52;;;;;;;5.88;100.00;101352.66;5062223;28;20039;-67
2023/12/29 04:37:45;;;;;;;32.10;16.23;;;;;;;5.90;100.00;101348.28;5062100;28;20094;-67
2023/12/29 04:40:12;;;;;;;35.13;15.98;;;;;;;5.94;100.00;101352.34;5066048;28;20067;-67
2023/12/29 04:42:37;;;;;;;32.78;15.68;;;;;;;5.95;100.00;101348.00;5061325;28;20097;-67
2023/12/29 04:45:04;;;;;;;39.47;16.55;;;;;;;5.96;100.00;101344.47;5061636;28;20044;-67
2023/12/29 04:47:29;;;;;;;38.92;14.80;;;;;;;5.99;100.00;101352.06;5059866;28;20028;-67
2023/12/29 04:49:55;;;;;;;29.23;15.57;;;;;;;6.01;100.00;101346.78;5062133;28;20056;-67
2023/12/29 04:52:20;;;;;;;35.33;16.77;;;;;;;6.01;100.00;101345.03;5061705;28;20028;-67
2023/12/29 04:54:46;;;;;;;35.05;16.50;;;;;;;5.99;100.00;101341.72;5063624;28;20041;-67
2023/12/29 04:57:11;;;;;;;33.58;16.08;;;;;;;5.89;100.00;101338.84;5064042;28;20041;-67
2023/12/29 04:59:37;;;;;;;32.47;16.02;;;;;;;5.81;100.00;101347.97;5061064;28;20040;-67
2023/12/29 05:02:02;;;;;;;33.35;15.40;;;;;;;5.67;100.00;101343.63;5060871;28;20474;-67
2023/12/29 05:04:28;;;;;;;27.42;15.10;;;;;;;5.56;100.00;101341.69;5059001;28;20438;-67
2023/12/29 05:06:53;;;;;;;29.58;13.95;;;;;;;5.47;100.00;101337.06;5063150;28;20400;-67
2023/12/29 05:09:19;;;;;;;31.42;15.13;;;;;;;5.40;100.00;101342.66;5061841;28;20032;-67
2023/12/29 05:11:45;;;;;;;29.33;13.80;;;;;;;5.33;100.00;101342.19;5060645;28;20043;-67
2023/12/29 05:14:10;;;;;;;32.78;14.10;;;;;;;5.27;100.00;101353.72;5064690;28;20047;-67
2023/12/29 05:16:35;;;;;;;29.58;14.05;;;;;;;5.20;100.00;101349.81;5068729;28;20035;-67
2023/12/29 05:19:01;;;;;;;26.52;14.80;;;;;;;5.21;100.00;101361.81;5070382;28;20028;-67
2023/12/29 05:21:26;;;;;;;31.60;14.88;;;;;;;5.27;100.00;101369.22;5067390;28;20037;-67
2023/12/29 05:23:52;;;;;;;34.80;15.45;;;;;;;5.28;100.00;101367.47;5067202;28;20020;-68
2023/12/29 05:26:18;;;;;;;29.60;14.77;;;;;;;5.32;100.00;101371.53;5070530;28;20049;-67
2023/12/29 05:28:43;;;;;;;30.63;15.05;;;;;;;5.38;100.00;101367.78;5069587;28;20035;-67
2023/12/29 05:31:09;;;;;;;35.38;16.10;;;;;;;5.45;100.00;101374.25;5061549;28;20044;-67
2023/12/29 05:33:35;;;;;;;30.35;14.80;;;;;;;5.50;100.00;101377.41;5064819;28;20024;-67
2023/12/29 05:36:10;;;;;;;30.73;14.73;;;;;;;5.55;100.00;101371.03;5078467;28;20477;-67
2023/12/29 05:38:36;;;;;;;25.40;13.05;;;;;;;5.56;100.00;101375.28;5055454;28;20087;-67
2023/12/29 05:41:04;;;;;;;22.15;12.50;;;;;;;5.58;100.00;101378.63;5061829;28;20048;-67
2023/12/29 05:43:34;;;;;;;26.48;13.85;;;;;;;5.65;100.00;101386.84;5060410;28;20155;-67
2023/12/29 05:46:00;;;;;;;27.23;14.00;;;;;;;5.70;100.00;101381.38;5063074;28;20554;-67
2023/12/29 05:48:25;;;;;;;27.60;14.23;;;;;;;5.66;100.00;101379.00;5060263;28;20040;-67
2023/12/29 05:50:51;;;;;;;26.38;13.95;;;;;;;5.66;100.00;101373.84;5063174;28;20028;-67
2023/12/29 05:53:17;;;;;;;26.65;13.35;;;;;;;5.66;100.00;101381.59;5059430;28;20043;-67
2023/12/29 05:55:45;;;;;;;29.05;13.77;;;;;;;5.67;100.00;101379.84;5063011;28;20025;-67
2023/12/29 05:58:11;;;;;;;31.15;15.48;;;;;;;5.74;100.00;101377.69;5063732;28;20047;-67
2023/12/29 06:00:37;;;;;;;26.75;13.68;;;;;;;5.84;100.00;101379.63;5067473;28;20189;-67
2023/12/29 06:03:05;;;;;;;33.88;16.20;;;;;;;5.88;100.00;101381.13;5069269;28;20021;-67
2023/12/29 06:05:32;;;;;;;29.50;14.50;;;;;;;5.92;100.00;101384.38;5071475;28;20121;-67
2023/12/29 06:07:57;;;;;;;35.47;15.88;;;;;;;5.90;100.00;101384.47;5073182;28;20050;-67
2023/12/29 06:10:22;;;;;;;29.35;15.02;;;;;;;5.94;100.00;101382.53;5071822;28;20119;-67
2023/12/29 06:12:48;;;;;;;35.17;15.95;;;;;;;5.98;100.00;101389.19;5069675;28;20504;-67
2023/12/29 06:15:14;;;;;;;27.50;14.75;;;;;;;6.01;100.00;101388.19;5076079;28;20043;-67
2023/12/29 06:17:40;;;;;;;32.22;15.52;;;;;;;5.96;100.00;101391.88;5074002;28;21904;-67
2023/12/29 06:20:07;;;;;;;35.30;17.52;;;;;;;5.93;100.00;101397.22;5062987;28;20186;-67
2023/12/29 06:22:32;;;;;;;32.55;16.23;;;;;;;5.92;100.00;101394.72;5072976;28;20100;-67
2023/12/29 06:24:58;;;;;;;31.17;14.68;;;;;;;5.89;100.00;101390.56;5071333;28;20111;-67
2023/12/29 06:27:25;;;;;;;36.50;16.35;;;;;;;5.88;100.00;101385.47;5070821;28;20119;-67
2023/12/29 06:29:51;;;;;;;29.35;15.27;;;;;;;5.95;100.00;101384.22;5071629;28;20376;-67
2023/12/29 06:32:16;;;;;;;31.98;15.70;;;;;;;6.00;100.00;101389.94;5064923;28;20111;-67
2023/12/29 06:34:41;;;;;;;30.10;17.25;;;;;;;5.98;100.00;101390.03;5071351;28;20032;-67
2023/12/29 06:37:07;;;;;;;37.97;19.02;;;;;;;5.97;100.00;101390.13;5073194;28;20036;-67
2023/12/29 06:39:32;;;;;;;34.75;16.10;;;;;;;5.95;100.00;101394.56;5075988;28;20089;-67
2023/12/29 06:41:58;;;;;;;42.83;19.52;;;;;;;5.93;100.00;101391.22;5075383;28;20119;-67
2023/12/29 06:44:23;;;;;;;43.25;18.52;;;;;;;5.93;100.00;101396.41;5068796;28;20039;-67
2023/12/29 06:46:48;;;;;;;40.03;17.80;;;;;;;5.95;100.00;101386.78;5070200;28;20025;-67
2023/12/29 06:49:14;;;;;;;35.80;18.45;;;;;;;5.97;100.00;101392.72;5066090;28;20040;-68
2023/12/29 06:51:40;;;;;;;38.33;18.08;;;;;;;5.99;100.00;101391.69;5071403;28;20044;-67
2023/12/29 06:54:06;;;;;;;34.35;16.83;;;;;;;6.04;100.00;101391.41;5071496;28;20031;-68
2023/12/29 06:56:32;;;;;;;29.77;15.32;;;;;;;6.11;100.00;101390.13;5070835;28;20123;-67
2023/12/29 06:58:57;;;;;;;35.20;18.15;;;;;;;6.17;100.00;101394.91;5074950;28;20139;-67
2023/12/29 07:01:23;;;;;;;39.88;18.13;;;;;;;6.20;100.00;101391.28;5072769;28;20311;-67
2023/12/29 07:03:48;;;;;;;38.55;17.25;;;;;;;6.22;100.00;101386.84;5072316;28;20033;-67
2023/12/29 07:06:14;;;;;;;37.38;18.15;;;;;;;6.24;100.00;101380.66;5071339;28;20102;-67
2023/12/29 07:08:39;;;;;;;37.35;18.65;;;;;;;6.27;100.00;101383.06;5069683;28;20044;-68
2023/12/29 07:11:09;;;;;;;35.20;17.25;;;;;;;6.29;100.00;101388.97;5071511;28;20044;-67
2023/12/29 07:13:36;;;;;;;40.85;17.02;;;;;;;6.31;100.00;101387.13;5071978;28;20071;-67
2023/12/29 07:16:01;;;;;;;44.53;18.55;;;;;;;6.30;100.00;101384.63;5068637;28;20032;-67
2023/12/29 07:18:27;;;;;;;46.80;22.30;;;;;;;6.29;100.00;101394.16;5071698;28;20042;-67
2023/12/29 07:20:52;;;;;;;37.03;18.38;;;;;;;6.30;100.00;101385.47;5062486;28;20550;-67
2023/12/29 07:23:18;;;;;;;42.85;21.05;;;;;;;6.31;100.00;101401.81;5063877;28;20413;-67
2023/12/29 07:25:43;;;;;;;40.35;19.00;;;;;;;6.36;100.00;101393.78;5061628;28;20059;-67
2023/12/29 07:28:08;;;;;;;45.95;20.70;;;;;;;6.44;100.00;101400.16;5062820;28;20032;-67
2023/12/29 07:30:34;;;;;;;44.63;19.35;;;;;;;6.50;100.00;101401.53;5064198;28;20055;-67
2023/12/29 07:33:00;;;;;;;42.88;20.40;;;;;;;6.52;100.00;101402.25;5065763;28;20067;-67
2023/12/29 07:35:26;;;;;;;45.85;20.10;;;;;;;6.53;100.00;101407.34;5067599;28;20048;-67
2023/12/29 07:37:51;;;;;;;45.47;20.08;;;;;;;6.55;100.00;101404.66;5068224;28;20028;-67
2023/12/29 07:40:17;;;;;;;42.58;20.42;;;;;;;6.58;100.00;101413.06;5066887;28;20028;-67
2023/12/29 07:42:44;;;;;;;46.90;21.20;;;;;;;6.61;100.00;101409.47;5064769;28;20020;-67
2023/12/29 07:45:10;;;;;;;44.85;20.73;;;;;;;6.63;100.00;101407.56;5063326;28;20125;-67
2023/12/29 07:47:35;;;;;;;34.70;15.65;;;;;;;6.66;100.00;101410.81;5060045;28;20040;-67
2023/12/29 07:50:01;;;;;;;40.58;20.33;;;;;;;6.70;100.00;101418.38;5067446;28;20115;-67
2023/12/29 07:52:26;;;;;;;38.25;18.95;;;;;;;6.75;100.00;101412.00;5066927;28;20113;-68
2023/12/29 07:54:52;;;;;;;40.72;21.13;;;;;;;6.77;100.00;101410.13;5068150;28;20077;-67
2023/12/29 07:57:17;;;;;;;37.80;19.67;;;;;;;6.82;100.00;101409.84;5065853;28;20040;-67
2023/12/29 07:59:43;;;;;;;42.15;20.50;;;;;;;6.85;100.00;101413.06;5067544;28;20037;-67
2023/12/29 08:02:08;;;;;;;47.70;22.10;;;;;;;6.88;100.00;101412.06;5066999;28;20036;-67
2023/12/29 08:04:35;;;;;;;49.38;22.98;;;;;;;6.90;100.00;101418.81;5069457;28;20055;-67
2023/12/29 08:07:01;;;;;;;43.55;21.52;;;;;;;6.94;100.00;101403.88;5066549;28;20394;-68
2023/12/29 08:09:26;;;;;;;47.83;22.27;;;;;;;7.01;100.00;101407.75;5069165;28;20036;-67
2023/12/29 08:11:52;;;;;;;46.35;22.90;;;;;;;7.08;100.00;101400.41;5071338;28;20109;-67
2023/12/29 08:14:17;;;;;;;54.13;23.70;;;;;;;7.12;100.00;101401.84;5071741;28;20034;-68
2023/12/29 08:16:42;;;;;;;51.10;23.75;;;;;;;7.14;100.00;101405.19;5073655;28;20462;-67
2023/12/29 08:19:09;;;;;;;46.20;21.95;;;;;;;7.14;100.00;101405.19;5066663;28;20048;-67
2023/12/29 08:21:35;;;;;;;52.42;25.20;;;;;;;7.12;100.00;101405.28;5062900;28;20043;-67
2023/12/29 08:24:01;;;;;;;45.85;23.42;;;;;;;7.11;100.00;101405.38;5069097;28;20028;-67
2023/12/29 08:26:26;;;;;;;46.83;23.73;;;;;;;7.11;100.00;101407.97;5064902;28;20119;-67
2023/12/29 08:28:52;;;;;;;47.20;23.08;;;;;;;7.16;100.00;101422.28;5073443;28;20036;-67
2023/12/29 08:31:19;;;;;;;42.00;22.13;;;;;;;7.25;100.00;101426.06;5063936;28;20515;-67
2023/12/29 08:33:44;;;;;;;54.08;23.98;;;;;;;7.29;100.00;101427.50;5060110;28;20056;-67
2023/12/29 08:36:11;;;;;;;47.15;23.00;;;;;;;7.29;100.00;101422.34;5060098;28;20610;-67
2023/12/29 08:38:37;;;;;;;48.97;23.85;;;;;;;7.28;100.00;101425.84;5059703;28;20055;-67
2023/12/29 08:41:03;;;;;;;50.35;23.33;;;;;;;7.29;100.00;101428.34;5062076;28;20414;-67
2023/12/29 08:43:28;;;;;;;55.70;24.33;;;;;;;7.36;100.00;101426.19;5059640;28;20124;-67
2023/12/29 08:45:54;;;;;;;52.58;23.95;;;;;;;7.44;100.00;101428.28;5066530;28;20044;-67
2023/12/29 08:48:19;;;;;;;44.17;22.45;;;;;;;7.54;100.00;101431.94;5068907;28;20485;-67
2023/12/29 08:50:45;;;;;;;48.25;24.83;;;;;;;7.60;100.00;101427.16;5066575;28;20050;-67
2023/12/29 08:53:10;;;;;;;54.75;25.15;;;;;;;7.72;100.00;101429.88;5071481;28;20474;-67
2023/12/29 08:55:36;;;;;;;57.80;25.60;;;;;;;7.77;100.00;101432.97;5063602;28;20025;-68
2023/12/29 08:58:01;;;;;;;54.53;25.80;;;;;;;7.72;100.00;101420.31;5067192;28;20024;-67
2023/12/29 09:00:30;;;;;;;48.47;24.25;;;;;;;7.71;100.00;101431.63;5066852;28;20029;-67
2023/12/29 09:02:56;;;;;;;48.20;24.00;;;;;;;7.73;100.00;101441.91;5067109;28;20516;-67
2023/12/29 09:05:21;;;;;;;48.97;24.15;;;;;;;7.74;100.00;101433.19;5065178;28;20036;-67
2023/12/29 09:07:46;;;;;;;57.20;23.55;;;;;;;7.85;100.00;101441.09;5062276;28;20097;-67
2023/12/29 09:10:12;;;;;;;52.35;23.48;;;;;;;7.92;100.00;101435.38;5064073;28;20115;-67
2023/12/29 09:12:38;;;;;;;51.90;25.70;;;;;;;7.96;100.00;101438.59;5062188;28;20033;-67
2023/12/29 09:15:05;;;;;;;51.72;24.63;;;;;;;8.04;100.00;101438.88;5068831;28;20028;-67
2023/12/29 09:17:31;;;;;;;51.67;25.30;;;;;;;8.13;100.00;101435.66;5065645;28;20040;-67
2023/12/29 09:19:56;;;;;;;52.10;25.35;;;;;;;8.24;100.00;101438.34;5068933;28;20028;-67
2023/12/29 09:22:21;;;;;;;49.95;25.20;;;;;;;8.31;100.00;101442.19;5066743;28;20032;-67
2023/12/29 09:24:47;;;;;;;58.92;25.25;;;;;;;8.34;100.00;101442.94;5067695;28;20031;-67
2023/12/29 09:27:13;;;;;;;50.03;23.80;;;;;;;8.33;100.00;101444.72;5068478;28;20082;-67
2023/12/29 09:29:39;;;;;;;54.15;26.00;;;;;;;8.30;100.00;101442.31;5065515;28;20036;-67
2023/12/29 09:32:04;;;;;;;50.88;24.48;;;;;;;8.27;100.00;101439.91;5069911;28;20538;-67
2023/12/29 09:34:30;;;;;;;61.58;25.15;;;;;;;8.25;100.00;101441.78;5069610;28;20125;-67
2023/12/29 09:36:55;;;;;;;46.90;22.77;;;;;;;8.23;100.00;101441.88;5070727;28;20434;-67
2023/12/29 09:39:20;;;;;;;44.13;24.23;;;;;;;8.22;100.00;101442.81;5069790;28;20095;-67
2023/12/29 09:41:50;;;;;;;48.15;22.38;;;;;;;8.23;100.00;101441.06;5067709;28;20024;-67
2023/12/29 09:44:16;;;;;;;47.42;23.10;;;;;;;8.23;100.00;101436.69;5070631;28;20029;-68
2023/12/29 09:46:43;;;;;;;49.20;22.70;;;;;;;8.30;100.00;101442.31;5069543;28;20024;-67
2023/12/29 09:49:09;;;;;;;44.35;23.33;;;;;;;8.34;100.00;101445.56;5067900;28;20524;-67
2023/12/29 09:51:37;;;;;;;47.47;24.13;;;;;;;8.34;100.00;101438.59;5062085;28;20041;-67
2023/12/29 09:54:03;;;;;;;49.75;24.65;;;;;;;8.38;100.00;101440.03;5074437;28;20107;-68
2023/12/29 09:56:29;;;;;;;48.67;25.15;;;;;;;8.44;100.00;101437.03;5070168;28;20533;-67
2023/12/29 09:58:56;;;;;;;51.05;24.98;;;;;;;8.47;100.00;101433.38;5065458;28;20033;-67
2023/12/29 10:01:23;;;;;;;50.83;26.33;;;;;;;8.53;100.00;101432.91;5071108;28;20398;-67
2023/12/29 10:03:49;;;;;;;59.78;28.23;;;;;;;8.57;100.00;101437.78;5066147;28;20036;-67
2023/12/29 10:06:21;;;;;;;60.67;25.88;;;;;;;8.60;100.00;101437.59;5072885;28;20123;-67
2023/12/29 10:08:49;;;;;;;55.35;27.23;;;;;;;8.66;100.00;101433.72;5071159;28;20036;-67
2023/12/29 10:11:18;;;;;;;51.40;25.27;;;;;;;8.74;100.00;101433.19;5063986;28;20040;-67
2023/12/29 10:13:46;;;;;;;56.38;27.50;;;;;;;8.78;100.00;101432.03;5071739;28;20028;-67
2023/12/29 10:16:35;;;;;;;56.70;28.50;;;;;;;8.81;100.00;101430.03;5066080;28;20044;-67
2023/12/29 10:19:16;;;;;;;51.08;26.98;;;;;;;8.83;100.00;101429.94;5065845;28;20032;-67
2023/12/29 10:22:31;;;;;;;52.92;24.23;;;;;;;8.89;100.00;101424.31;5067559;28;20055;-67
2023/12/29 10:24:56;;;;;;;55.47;25.23;;;;;;;8.95;100.00;101424.69;5070696;28;20234;-67
2023/12/29 10:27:22;;;;;;;51.90;24.33;;;;;;;8.92;100.00;101424.09;5068680;28;20556;-66
2023/12/29 10:29:48;;;;;;;53.35;23.80;;;;;;;8.93;100.00;101420.53;5070929;28;20090;-67
2023/12/29 10:32:13;;;;;;;42.45;22.60;;;;;;;8.89;100.00;101414.72;5072463;28;20024;-66
2023/12/29 10:34:39;;;;;;;43.10;22.63;;;;;;;8.81;100.00;101417.06;5066079;28;20036;-67
2023/12/29 10:37:09;;;;;;;50.28;24.02;;;;;;;8.72;100.00;101417.69;5065215;28;20040;-67
2023/12/29 10:39:37;;;;;;;49.65;24.48;;;;;;;8.70;100.00;101416.97;5072813;28;20047;-67
2023/12/29 10:42:07;;;;;;;44.92;22.63;;;;;;;8.69;100.00;101409.28;5071663;28;20510;-67
2023/12/29 10:44:37;;;;;;;55.58;26.33;;;;;;;8.75;100.00;101408.88;5072236;28;20036;-67
2023/12/29 10:47:10;;;;;;;51.60;25.60;;;;;;;8.83;100.00;101404.78;5082266;28;20038;-68
2023/12/29 10:49:35;;;;;;;46.28;23.60;;;;;;;8.89;100.00;101398.31;5071180;28;20032;-67
2023/12/29 10:52:11;;;;;;;46.80;22.88;;;;;;;8.94;100.00;101401.41;5074547;28;20038;-68
2023/12/29 10:54:36;;;;;;;;;;;;;;;8.96;100.00;101394.34;5066437;28;20045;-68
2023/12/29 10:57:03;;;;;;;47.13;24.03;;;;;;;8.98;100.00;101393.25;5065367;28;20250;-68
2023/12/29 10:59:28;;;;;;;46.83;22.85;;;;;;;8.98;100.00;101388.06;5070471;28;20032;-68
2023/12/29 11:01:54;;;;;;;51.40;23.25;;;;;;;9.01;100.00;101386.16;5074114;28;20405;-68
2023/12/29 11:04:22;;;;;;;46.08;22.63;;;;;;;9.01;100.00;101379.19;5070658;28;20397;-67
2023/12/29 11:06:50;;;;;;;44.20;22.48;;;;;;;8.97;100.00;101386.41;5069093;28;20051;-67